Inmocean — ZCXX2 — position and weather

sailwx.info

Track history (hours):
 
Tides and Currents Weather Stations Pressure Air Temp Water Temp Dewpoint Dewpoint Depression Visibility Wind Speed Wind Dir Waves Ship Positions

Inmocean

Last reported at 2014-Jul-28 16:16 UTC. Time now 2014-Jul-29 02:43 UTC.
Position N 38°54' E 001°27'.

Type: Sailing vessel. MMSI: 319120000.

Date/timePositionNaut miles runAvg speedWind from/ knotsBaromVisibWave heightAir tempDewpointWater temp
2014-Jul-28 16:16N 38°54' E 001°27'7 9.4
2014-Jul-28 15:32N 38°57' E 001°35'10 9.9
2014-Jul-28 14:33N 39°03' E 001°46'1010.4
2014-Jul-28 13:33N 39°09' E 001°57'1010.2
2014-Jul-28 12:33N 39°14' E 002°07'1010.0
2014-Jul-28 11:33N 39°20' E 002°18'1010.4
2014-Jul-28 10:33N 39°26' E 002°29'1010.0
2014-Jul-28 09:33N 39°33' E 002°38'  
2014-Jul-25 17:33N 39°29' E 002°34'7 3.5
2014-Jul-25 15:33N 39°30' E 002°25'2 0.5
2014-Jul-25 11:33N 39°29' E 002°28'1 0.5
2014-Jul-25 10:20N 39°29' E 002°28'5 6.0
2014-Jul-25 09:33N 39°29' E 002°34'5 5.3
2014-Jul-25 08:33N 39°34' E 002°38'0 0.0
2014-Jul-23 14:13N 39°34' E 002°38'0 0.0
2014-Jul-23 13:31N 39°34' E 002°38'0 0.0
2014-Jul-23 12:31N 39°34' E 002°38'0 0.0
2014-Jul-23 11:31N 39°34' E 002°38'  
Track history (hours):
 
Tides and Currents Weather Stations Pressure Air Temp Water Temp Dewpoint Dewpoint Depression Visibility Wind Speed Wind Dir Waves Ship Positions

Inmocean

Last reported at 2014-Jul-28 16:16 UTC. Time now 2014-Jul-29 02:43 UTC.
Position N 38°54' E 001°27'.

Type: Sailing vessel. MMSI: 319120000.

Date/timePositionNaut miles runAvg speedWind from/ knotsBaromVisibWave heightAir tempDewpointWater temp
2014-Jul-28 16:16N 38°54' E 001°27'7 9.4
2014-Jul-28 15:32N 38°57' E 001°35'10 9.9
2014-Jul-28 14:33N 39°03' E 001°46'1010.4
2014-Jul-28 13:33N 39°09' E 001°57'1010.2
2014-Jul-28 12:33N 39°14' E 002°07'1010.0
2014-Jul-28 11:33N 39°20' E 002°18'1010.4
2014-Jul-28 10:33N 39°26' E 002°29'1010.0
2014-Jul-28 09:33N 39°33' E 002°38'  
2014-Jul-25 17:33N 39°29' E 002°34'7 3.5
2014-Jul-25 15:33N 39°30' E 002°25'2 0.5
2014-Jul-25 11:33N 39°29' E 002°28'1 0.5
2014-Jul-25 10:20N 39°29' E 002°28'5 6.0
2014-Jul-25 09:33N 39°29' E 002°34'5 5.3
2014-Jul-25 08:33N 39°34' E 002°38'0 0.0
2014-Jul-23 14:13N 39°34' E 002°38'0 0.0
2014-Jul-23 13:31N 39°34' E 002°38'0 0.0
2014-Jul-23 12:31N 39°34' E 002°38'0 0.0
2014-Jul-23 11:31N 39°34' E 002°38'  

Dump ship's entire track history